Archival Weather

Republic

Farmingdale, New York (KFRG)

Report from: Friday, February 2, 2024 9:51 AM EST
Current time: Monday, June 17, 2024 3:45 AM EDT

Current weather – Weather history – Daily summaries
Weather forecast

Present weatherMist
Temperature6.0°C (42.8°F)
Wind chill5.0°C (41.1°F)
Dew point4.0°C (39.2°F)
Winds 3 kts (1.5 m/s, 3.5 mph) North-Northeast (20°)
Visibility3 mi. (4.8 km)
Clouds Ceiling: Broken clouds 700 ft. (213 m)
Overcast 2,500 ft. (762 m)
Altimeter29.86 in.Hg (1011 mB)
Relative humidity87 %
Density altitude-895 ft. (-273 m)
Remarks Automated weather observing station without precipitation discriminator
Flight conditions Instrument Meteorological Conditions
Raw dataKFRG 021451Z 02003KT 3SM BR BKN007 OVC025 06/04 A2986 RMK AO1
An error has occurred. This application may no longer respond until reloaded. Reload 🗙